• Join FlightAware (Why Join?)
  • Login
  • US Flag 
09:05AM EDT


 

Airport Tracker/Info


-or-


 

Live Flight TrackerFlight Track Log ✈ DAL1941 ✈ 06-Aug-2013 ✈ KMHT - KATL

Flight Track Log - Related Links

Times and Time Zones

All times are in EDT time to prevent confusion due to time zone crossing. See the DAL1941 flight status page for this flight to view local times or setup timezone preferences in your user account.

Time Position Orientation Groundspeed Altitude Reporting Facility
EDT Latitude Longitude Course Direction KTS MPH feet Rate Location/Type
07:25AM 42.9500 -71.4500 202° Southwest 157 181 1,500  Level KA90
07:26AM 43.0333 -71.4833 344° North 249 287 3,500 2,100 Climbing KA90
07:28AM 43.0736 -71.0222 71° East  Level FlightAware Approximate
07:29AM 43.0213 -70.9046 144° Southeast  Level FlightAware Approximate
07:29AM 43.1250 -71.3989 34° Northeast 225 259 9,400  Level Boston Center
07:30AM 42.9204 -70.9017 202° Southwest  Level FlightAware Approximate
07:30AM 43.0989 -71.2800 107° East 248 285 10,900  Level Boston Center
07:31AM 43.0661 -71.1469 109° East 335 386 13,400 2,280 Climbing Boston Center
07:32AM 43.0333 -71.0142 109° East 364 419 15,500 2,040 Climbing Boston Center
07:33AM 42.9983 -70.8786 109° East 374 430 17,600 1,740 Climbing Boston Center
07:34AM 42.9097 -70.8158 153° Southeast 361 415 19,000 1,380 Climbing Boston Center
07:35AM 42.8253 -70.8717 206° Southwest 330 380 20,400 1,620 Climbing Boston Center
07:36AM 42.7303 -70.9447 209° Southwest 348 400 22,300 1,560 Climbing Boston Center
07:37AM 42.6375 -71.0178 210° Southwest 369 425 23,500 1,080 Climbing Boston Center
07:38AM 42.5425 -71.0986 212° Southwest 394 453 24,500 780 Climbing Boston Center
07:39AM 42.4919 -71.2378 244° Southwest 400 460 25,100 1,140 Climbing Boston Center
07:40AM 42.4456 -71.3933 248° West 416 479 26,800 1,680 Climbing Boston Center
07:41AM 42.4031 -71.5403 249° West 421 484 28,500 1,500 Climbing Boston Center
07:42AM 42.3542 -71.6983 247° West 421 484 29,800 1,080 Climbing Boston Center
07:43AM 42.2967 -71.8394 241° Southwest 421 484 30,700 1,020 Climbing Boston Center
07:44AM 42.2389 -71.9775 241° Southwest 431 496 31,900 600 Climbing Boston Center
07:45AM 42.1811 -72.1122 240° Southwest 431 496 32,000  Climbing Boston Center
07:46AM 42.1208 -72.2497 239° Southwest 431 496 32,000  Level Boston Center
07:47AM 42.0647 -72.3842 241° Southwest 425 489 32,000  Level Boston Center
07:48AM 42.0064 -72.5211 240° Southwest 425 489 32,000  Level Boston Center
07:49AM 41.9500 -72.6494 239° Southwest 419 482 32,000  Level Boston Center
07:50AM 41.8914 -72.7886 241° Southwest 419 482 32,000  Level Boston Center
07:51AM 41.8303 -72.9250 239° Southwest 424 488 32,000  Level Boston Center
07:52AM 41.7672 -73.0664 239° Southwest 435 501 32,000  Level Boston Center
07:53AM 41.6914 -73.1933 231° Southwest 447 514 32,000  Level Boston Center
07:54AM 41.6175 -73.3203 232° Southwest 447 514 32,000  Level Boston Center
07:55AM 41.5006 -73.5108 231° Southwest 420 483 32,000  Level New York Center
07:56AM 41.4267 -73.6378 232° Southwest 427 491 32,000  Level New York Center
07:57AM 41.3508 -73.7589 230° Southwest 432 497 32,000  Level New York Center
07:58AM 41.2767 -73.8853 232° Southwest 437 503 32,000  Level New York Center
07:59AM 41.2006 -74.0111 231° Southwest 437 503 32,000  Level New York Center
08:00AM 41.1242 -74.1369 231° Southwest 437 503 32,000  Level New York Center
08:01AM 41.0456 -74.2542 228° Southwest 432 497 32,000  Level New York Center
08:02AM 40.9692 -74.3767 230° Southwest 439 505 32,000  Level New York Center
08:03AM 40.8944 -74.4989 231° Southwest 439 505 32,000  Level New York Center
08:04AM 40.8178 -74.6181 230° Southwest 439 505 32,000  Level New York Center
08:05AM 40.7447 -74.7428 232° Southwest 439 505 32,000  Level New York Center
08:06AM 40.6697 -74.8669 231° Southwest 433 498 32,000  Level New York Center
08:07AM 40.5947 -74.9856 230° Southwest 433 498 32,000  Level New York Center
08:08AM 40.5175 -75.1061 230° Southwest 433 498 32,000  Level New York Center
08:09AM 40.4400 -75.2269 230° Southwest 433 498 32,000  Level New York Center
08:10AM 40.3644 -75.3472 231° Southwest 433 498 32,000  Level New York Center
08:11AM 40.2867 -75.4700 230° Southwest 433 498 32,000  Level New York Center
08:12AM 40.2108 -75.5925 231° Southwest 433 498 32,000  Level New York Center
08:13AM 40.1431 -75.7208 235° Southwest 433 498 32,000 120 Level New York Center
08:14AM 40.0814 -75.8494 238° Southwest 428 493 32,300 600 Climbing New York Center
08:15AM 40.0172 -75.9778 237° Southwest 423 487 33,200 720 Climbing New York Center
08:16AM 39.9531 -76.1083 237° Southwest 423 487 33,800 360 Climbing New York Center
08:17AM 39.8758 -76.2486 234° Southwest 423 487 34,000 60 Climbing New York Center
08:19AM 39.7919 -76.4150 237° Southwest 427 491 34,000  Level Washington Center
08:20AM 39.7286 -76.5303 234° Southwest 432 497 34,000  Level Washington Center
08:21AM 39.6631 -76.6589 237° Southwest 437 503 34,000  Level Washington Center
08:22AM 39.5994 -76.7847 237° Southwest 437 503 34,000  Level Washington Center
08:23AM 39.5314 -76.9125 235° Southwest 437 503 34,000  Level Washington Center
08:24AM 39.4508 -77.0267 228° Southwest 437 503 34,000  Level Washington Center
08:25AM 39.3581 -77.1269 220° Southwest 437 503 34,000  Level Washington Center
08:26AM 39.2628 -77.2267 219° Southwest 443 510 34,000  Level Washington Center
08:27AM 39.1678 -77.3264 219° Southwest 443 510 34,000  Level Washington Center
08:28AM 39.0725 -77.4231 218° Southwest 449 517 34,000  Level Washington Center
08:29AM 38.9792 -77.5194 219° Southwest 449 517 34,000  Level Washington Center
08:30AM 38.8817 -77.6211 219° Southwest 454 522 34,000  Level Washington Center
08:31AM 38.7736 -77.7297 218° Southwest 454 522 34,000  Level Washington Center
08:32AM 38.6800 -77.8283 219° Southwest 453 521 34,000  Level Washington Center
08:33AM 38.5986 -77.9400 227° Southwest 437 503 34,000  Level Washington Center
08:34AM 38.5275 -78.0597 233° Southwest 431 496 34,000  Level Washington Center
08:35AM 38.4581 -78.1794 233° Southwest 431 496 34,000  Level Washington Center
08:36AM 38.3867 -78.2989 233° Southwest 431 496 34,000  Level Washington Center
08:37AM 38.3131 -78.4178 232° Southwest 431 496 34,000  Level Washington Center
08:38AM 38.2475 -78.5397 236° Southwest 431 496 34,000  Level Washington Center
08:39AM 38.1758 -78.6611 233° Southwest 431 496 34,000  Level Washington Center
08:40AM 38.1106 -78.7667 232° Southwest 426 490 34,000  Level Washington Center
08:41AM 38.0383 -78.8875 233° Southwest 432 497 34,000  Level Washington Center
08:42AM 37.9642 -79.0081 232° Southwest 432 497 34,000  Level Washington Center
08:43AM 37.8811 -79.1383 231° Southwest 437 503 34,000  Level Washington Center
08:44AM 37.8006 -79.2503 228° Southwest 437 503 34,000  Level Washington Center
08:45AM 37.7197 -79.3644 228° Southwest 442 509 34,000  Level Washington Center
08:46AM 37.6328 -79.4781 226° Southwest 454 522 34,000  Level Washington Center
08:47AM 37.5583 -79.5817 228° Southwest 454 522 34,000  Level Washington Center
08:48AM 37.4644 -79.7078 227° Southwest 454 522 34,000  Level Washington Center
08:49AM 37.3789 -79.8286 228° Southwest 454 522 34,000  Level Washington Center
08:50AM 37.2953 -79.9439 228° Southwest 454 522 34,000  Level Washington Center
08:52AM 37.1317 -80.1650 227° Southwest 453 521 34,000  Level Atlanta Center
08:53AM 37.0375 -80.2919 227° Southwest 453 521 34,000  Level Atlanta Center
08:54AM 36.9492 -80.4078 226° Southwest 460 529 34,000  Level Atlanta Center
08:55AM 36.8650 -80.5181 226° Southwest 460 529 34,000  Level Atlanta Center
08:56AM 36.7764 -80.6361 227° Southwest 460 529 34,000  Level Atlanta Center
08:57AM 36.7042 -80.7375 228° Southwest 455 524 34,000  Level Atlanta Center
08:58AM 36.6175 -80.8497 226° Southwest 455 524 34,000  Level Atlanta Center
08:59AM 36.5306 -80.9617 226° Southwest 455 524 34,000  Level Atlanta Center
09:00AM 36.4397 -81.0839 227° Southwest 455 524 34,000  Level Atlanta Center
09:01AM 36.3550 -81.1953 227° Southwest 449 517 34,000  Level Atlanta Center
09:02AM 36.2739 -81.3036 227° Southwest 438 504 34,000  Level Atlanta Center
09:03AM 36.1886 -81.4094 225° Southwest 432 497 34,000  Level Atlanta Center
09:04AM 36.1075 -81.5228 228° Southwest 432 497 34,000  Level Atlanta Center
09:05AM 36.0261 -81.6278 226° Southwest 437 503 34,000  Level Atlanta Center
09:06AM 35.9408 -81.7381 226° Southwest 437 503 34,000  Level Atlanta Center
09:07AM 35.8553 -81.8508 227° Southwest 437 503 34,000  Level Atlanta Center
09:08AM 35.7672 -81.9556 224° Southwest 437 503 34,000  Level Atlanta Center
09:09AM 35.6794 -82.0675 226° Southwest 437 503 34,000  Level Atlanta Center
09:10AM 35.5936 -82.1794 227° Southwest 442 509 34,000  Level Atlanta Center
09:11AM 35.5056 -82.2836 224° Southwest 442 509 34,000 -300 Level Atlanta Center
09:12AM 35.4150 -82.3822 222° Southwest 442 509 33,500 -1,080 Descending Atlanta Center
09:13AM 35.3267 -82.4833 223° Southwest 442 509 31,900 -1,560 Descending Atlanta Center
09:14AM 35.2442 -82.5764 223° Southwest 442 509 30,400 -1,500 Descending Atlanta Center
09:15AM 35.1556 -82.6719 221° Southwest 436 502 29,000 -1,500 Descending Atlanta Center
09:16AM 35.0628 -82.7750 222° Southwest 442 509 27,500 -1,680 Descending Atlanta Center
09:17AM 34.9700 -82.8778 222° Southwest 442 509 25,700 -1,500 Descending Atlanta Center
09:18AM 34.8769 -82.9753 221° Southwest 442 509 24,500 -900 Descending Atlanta Center
09:19AM 34.7881 -83.0753 223° Southwest 442 509 24,000 -300 Descending Atlanta Center
09:20AM 34.7011 -83.1722 223° Southwest 436 502 24,000 -540 Level Atlanta Center
09:21AM 34.6119 -83.2717 223° Southwest 436 502 23,000 -1,500 Descending Atlanta Center
09:22AM 34.5250 -83.3681 222° Southwest 436 502 21,000 -2,220 Descending Atlanta Center
09:23AM 34.4317 -83.4672 221° Southwest 419 482 18,600 -2,700 Descending Atlanta Center
09:24AM 34.3483 -83.5558 221° Southwest 414 476 15,700 -2,220 Descending Atlanta Center
09:26AM 34.1833 -83.7333 222° Southwest 367 422 12,000 -1,260 Descending Atlanta TRACON
09:27AM 34.1239 -83.8031 224° Southwest 351 404 12,000 -120 Level Atlanta Center
09:28AM 34.0614 -83.8733 223° Southwest 316 364 11,800 -660 Descending Atlanta Center
09:29AM 34.0000 -83.9333 219° Southwest 297 342 10,700 -900 Descending Atlanta TRACON
09:30AM 33.9167 -83.9667 198° South 304 350 10,000 -600 Descending Atlanta TRACON
09:31AM 33.8464 -83.9739 185° South 294 338 9,600 -840 Descending Atlanta Center
09:32AM 33.7628 -83.9714 179° South 300 345 8,400 -1,260 Descending Atlanta Center
09:33AM 33.6836 -83.9639 175° South 300 345 7,100 -1,020 Descending Atlanta Center
09:34AM 33.6314 -84.0189 221° Southwest 229 264 6,400 -780 Descending Atlanta Center
09:36AM 33.6333 -84.1833 271° West 216 249 4,800 -960 Descending Atlanta TRACON
09:37AM 33.6333 -84.2500 270° West 213 245 3,600 -1,140 Descending Atlanta TRACON
09:38AM 33.6333 -84.3333 270° West 211 243 2,500 -1,020 Descending Atlanta TRACON
09:39AM 33.6333 -84.3833 270° West 173 199 1,600 -1,020 Descending Atlanta TRACON